createdAt,value
2017-05-24T00:00:34.226Z,1014.61
2017-05-24T00:01:34.275Z,1014.65
2017-05-24T00:02:34.311Z,1014.56
2017-05-24T00:03:34.343Z,1014.6
2017-05-24T00:04:34.379Z,1014.53
2017-05-24T00:05:34.410Z,1014.5
2017-05-24T00:06:34.441Z,1014.54
2017-05-24T00:07:34.486Z,1014.61
2017-05-24T00:08:34.511Z,1014.63
2017-05-24T00:09:34.541Z,1014.65
2017-05-24T00:10:34.579Z,1014.56
2017-05-24T00:11:34.614Z,1014.64
2017-05-24T00:12:34.644Z,1014.66
2017-05-24T00:13:34.675Z,1014.68
2017-05-24T00:14:34.711Z,1014.66
2017-05-24T00:15:34.755Z,1014.65
2017-05-24T00:16:34.785Z,1014.63
2017-05-24T00:17:34.816Z,1014.63
2017-05-24T00:18:34.846Z,1014.66
2017-05-24T00:19:34.880Z,1014.66
2017-05-24T00:20:34.912Z,1014.7
2017-05-24T00:21:34.947Z,1014.72
2017-05-24T00:22:34.981Z,1014.73
2017-05-24T00:23:35.017Z,1014.69
2017-05-24T00:24:35.047Z,1014.68
2017-05-24T00:25:35.073Z,1014.7
2017-05-24T00:26:35.114Z,1014.69
2017-05-24T00:27:35.151Z,1014.7
2017-05-24T00:28:35.176Z,1014.7
2017-05-24T00:29:35.214Z,1014.67
2017-05-24T00:30:35.244Z,1014.68
2017-05-24T00:31:35.283Z,1014.65
2017-05-24T00:32:35.322Z,1014.61
2017-05-24T00:33:35.345Z,1014.63
2017-05-24T00:34:35.385Z,1014.6
2017-05-24T00:35:35.418Z,1014.61
2017-05-24T00:36:35.448Z,1014.57
2017-05-24T00:37:35.485Z,1014.55
2017-05-24T00:38:35.568Z,1014.59
2017-05-24T00:39:35.549Z,1014.56
2017-05-24T00:40:35.584Z,1014.54
2017-05-24T00:41:35.620Z,1014.54
2017-05-24T00:42:35.641Z,1014.55
2017-05-24T00:43:35.681Z,1014.53
2017-05-24T00:44:35.717Z,1014.55
2017-05-24T00:45:35.748Z,1014.54
2017-05-24T00:46:35.767Z,1014.53
2017-05-24T00:47:35.813Z,1014.52
2017-05-24T00:48:35.845Z,1014.55
2017-05-24T00:49:35.888Z,1014.58
2017-05-24T00:50:35.921Z,1014.54
2017-05-24T00:51:35.946Z,1014.52
2017-05-24T00:52:35.982Z,1014.52
2017-05-24T00:53:36.022Z,1014.55
2017-05-24T00:54:36.048Z,1014.57
2017-05-24T00:55:36.081Z,1014.58
2017-05-24T00:56:36.117Z,1014.53
2017-05-24T00:57:36.150Z,1014.54
2017-05-24T00:58:36.186Z,1014.56
2017-05-24T00:59:36.217Z,1014.58
2017-05-24T01:00:36.247Z,1014.59
2017-05-24T01:01:36.282Z,1014.58
2017-05-24T01:02:36.314Z,1014.54
2017-05-24T01:03:36.347Z,1014.58
2017-05-24T01:04:36.380Z,1014.55
2017-05-24T01:05:36.413Z,1014.59
2017-05-24T01:06:36.444Z,1014.59
2017-05-24T01:07:36.481Z,1014.63
2017-05-24T01:08:36.513Z,1014.62
2017-05-24T01:09:36.548Z,1014.64
2017-05-24T01:10:36.568Z,1014.62
2017-05-24T01:11:36.613Z,1014.65
2017-05-24T01:12:36.647Z,1014.64
2017-05-24T01:13:36.679Z,1014.59
2017-05-24T01:14:36.714Z,1014.62
2017-05-24T01:15:36.763Z,1014.65
2017-05-24T01:16:36.783Z,1014.61
2017-05-24T01:17:36.815Z,1014.64
2017-05-24T01:18:36.849Z,1014.62
2017-05-24T01:19:36.877Z,1014.7
2017-05-24T01:20:36.913Z,1014.64
2017-05-24T01:21:36.955Z,1014.66
2017-05-24T01:22:36.979Z,1014.66
2017-05-24T01:23:37.008Z,1014.62
2017-05-24T01:24:37.047Z,1014.63
2017-05-24T01:25:37.078Z,1014.66
2017-05-24T01:26:37.114Z,1014.71
2017-05-24T01:27:37.129Z,1014.67
2017-05-24T01:28:37.177Z,1014.65
2017-05-24T01:29:37.220Z,1014.65
2017-05-24T01:30:37.227Z,1014.61
2017-05-24T01:31:37.275Z,1014.6
2017-05-24T01:32:37.308Z,1014.63
2017-05-24T01:33:37.347Z,1014.69
2017-05-24T01:34:37.377Z,1014.67
2017-05-24T01:35:37.407Z,1014.63
2017-05-24T01:36:37.444Z,1014.62
2017-05-24T01:37:37.477Z,1014.64
2017-05-24T01:38:37.507Z,1014.69
2017-05-24T01:39:37.529Z,1014.72
2017-05-24T01:40:37.575Z,1014.7
2017-05-24T01:41:37.607Z,1014.69
2017-05-24T01:42:37.626Z,1014.71
2017-05-24T01:43:37.675Z,1014.74
2017-05-24T01:44:37.713Z,1014.73
2017-05-24T01:45:37.740Z,1014.79
2017-05-24T01:46:37.773Z,1014.73
2017-05-24T01:47:37.811Z,1014.74
2017-05-24T01:48:37.851Z,1014.77
2017-05-24T01:49:37.887Z,1014.8
2017-05-24T01:50:37.906Z,1014.79
2017-05-24T01:51:37.927Z,1014.85
2017-05-24T01:52:37.970Z,1014.81
2017-05-24T01:53:38.016Z,1014.86
2017-05-24T01:54:38.032Z,1014.83
2017-05-24T01:55:38.072Z,1014.85
2017-05-24T01:56:38.104Z,1014.88
2017-05-24T01:57:38.129Z,1014.92
2017-05-24T01:58:38.175Z,1014.93
2017-05-24T01:59:38.209Z,1014.92
2017-05-24T02:00:38.218Z,1014.92
2017-05-24T02:01:38.273Z,1014.91
2017-05-24T02:02:38.301Z,1014.93
2017-05-24T02:03:38.337Z,1014.9
2017-05-24T02:04:38.371Z,1014.92
2017-05-24T02:05:38.405Z,1014.99
2017-05-24T02:06:38.420Z,1014.94
2017-05-24T02:07:38.473Z,1015.01
2017-05-24T02:08:38.505Z,1014.98
2017-05-24T02:09:38.515Z,1015
2017-05-24T02:10:38.571Z,1014.92
2017-05-24T02:11:38.604Z,1014.98
2017-05-24T02:12:38.616Z,1014.98
2017-05-24T02:13:38.674Z,1014.98
2017-05-24T02:14:38.702Z,1014.99
2017-05-24T02:15:38.731Z,1014.96
2017-05-24T02:16:38.772Z,1014.99
2017-05-24T02:17:38.804Z,1014.98
2017-05-24T02:18:38.814Z,1014.94
2017-05-24T02:19:38.867Z,1014.92
2017-05-24T02:20:38.907Z,1014.91
2017-05-24T02:21:38.937Z,1014.96
2017-05-24T02:22:38.969Z,1014.98
2017-05-24T02:23:39.001Z,1014.98
2017-05-24T02:24:39.034Z,1014.99
2017-05-24T02:25:39.070Z,1014.99
2017-05-24T02:26:39.104Z,1014.98
2017-05-24T02:27:39.123Z,1015.03
2017-05-24T02:28:39.171Z,1014.95
2017-05-24T02:29:39.203Z,1014.97
2017-05-24T02:30:39.235Z,1014.97
2017-05-24T02:31:39.270Z,1015
2017-05-24T02:32:39.299Z,1014.97
2017-05-24T02:33:39.338Z,1014.93
2017-05-24T02:34:39.371Z,1015.02
2017-05-24T02:35:39.400Z,1015
2017-05-24T02:36:39.437Z,1014.98
2017-05-24T02:37:39.464Z,1014.98
2017-05-24T02:38:39.499Z,1015.05
2017-05-24T02:39:39.539Z,1015.05
2017-05-24T02:40:39.569Z,1015.01
2017-05-24T02:41:39.592Z,1014.99
2017-05-24T02:42:39.637Z,1014.99
2017-05-24T02:43:39.668Z,1015.05
2017-05-24T02:44:39.705Z,1015.02
2017-05-24T02:45:39.736Z,1015.06
2017-05-24T02:46:39.768Z,1015.05
2017-05-24T02:47:39.786Z,1015.03
2017-05-24T02:48:39.838Z,1015.05
2017-05-24T02:49:39.868Z,1015.03
2017-05-24T02:50:39.906Z,1014.99
2017-05-24T02:51:39.935Z,1014.96
2017-05-24T02:52:39.966Z,1015.05
2017-05-24T02:53:40.000Z,1015.05
2017-05-24T02:54:40.034Z,1015.01
2017-05-24T02:55:40.066Z,1015
2017-05-24T02:56:40.101Z,1014.98
2017-05-24T02:57:40.137Z,1014.97
2017-05-24T02:58:40.179Z,1015.01
2017-05-24T02:59:40.207Z,1015.01
2017-05-24T03:00:40.237Z,1015.04
2017-05-24T03:01:40.268Z,1015.07
2017-05-24T03:02:40.298Z,1015.02
2017-05-24T03:03:40.337Z,1015.01
2017-05-24T03:04:40.363Z,1015.05
2017-05-24T03:05:40.397Z,1015.06
2017-05-24T03:06:40.433Z,1015.09
2017-05-24T03:07:40.499Z,1015.08
2017-05-24T03:08:40.498Z,1015.08
2017-05-24T03:09:40.528Z,1015.08
2017-05-24T03:10:40.650Z,1015.05
2017-05-24T03:11:40.603Z,1015.04
2017-05-24T03:12:40.630Z,1015.06
2017-05-24T03:13:40.650Z,1015.03
2017-05-24T03:14:40.700Z,1015.07
2017-05-24T03:15:40.736Z,1015.04
2017-05-24T03:16:40.747Z,1015.08
2017-05-24T03:17:40.799Z,1015.07
2017-05-24T03:18:40.838Z,1015.08
2017-05-24T03:19:40.852Z,1015.09
2017-05-24T03:20:40.899Z,1015.15
2017-05-24T03:21:40.934Z,1015.08
2017-05-24T03:22:40.951Z,1015.06
2017-05-24T03:23:40.997Z,1015.09
2017-05-24T03:24:41.029Z,1015.08
2017-05-24T03:25:41.041Z,1015.06
2017-05-24T03:26:41.097Z,1015.11
2017-05-24T03:27:41.139Z,1015.07
2017-05-24T03:28:41.147Z,1015.11
2017-05-24T03:29:41.196Z,1015.09
2017-05-24T03:30:41.229Z,1015.03
2017-05-24T03:31:41.262Z,1015.09
2017-05-24T03:32:41.277Z,1015.06
2017-05-24T03:33:41.330Z,1015.11
2017-05-24T03:34:41.379Z,1015.07
2017-05-24T03:35:41.395Z,1015.09
2017-05-24T03:36:41.432Z,1015.08
2017-05-24T03:37:41.457Z,1015.09
2017-05-24T03:38:41.495Z,1015.14
2017-05-24T03:39:41.530Z,1015.09
2017-05-24T03:40:41.553Z,1015.1
2017-05-24T03:41:41.596Z,1015.07
2017-05-24T03:42:41.629Z,1015.06
2017-05-24T03:43:41.660Z,1015.14
2017-05-24T03:44:41.693Z,1015.19
2017-05-24T03:45:41.731Z,1015.14
2017-05-24T03:46:41.759Z,1015.17
2017-05-24T03:47:41.794Z,1015.16
2017-05-24T03:48:41.827Z,1015.24
2017-05-24T03:49:41.858Z,1015.21
2017-05-24T03:50:41.897Z,1015.22
2017-05-24T03:51:41.931Z,1015.19
2017-05-24T03:52:41.953Z,1015.23
2017-05-24T03:53:41.999Z,1015.24
2017-05-24T03:54:42.032Z,1015.26
2017-05-24T03:55:42.056Z,1015.22
2017-05-24T03:56:42.118Z,1015.28
2017-05-24T03:57:42.133Z,1015.28
2017-05-24T03:58:42.159Z,1015.33
2017-05-24T03:59:42.193Z,1015.34
2017-05-24T04:00:42.226Z,1015.31
2017-05-24T04:01:42.259Z,1015.32
2017-05-24T04:02:42.299Z,1015.3
2017-05-24T04:03:42.327Z,1015.32
2017-05-24T04:04:42.359Z,1015.34
2017-05-24T04:05:42.393Z,1015.35
2017-05-24T04:06:42.428Z,1015.36
2017-05-24T04:07:42.456Z,1015.41
2017-05-24T04:08:42.505Z,1015.43
2017-05-24T04:09:42.526Z,1015.43
2017-05-24T04:10:42.540Z,1015.4
2017-05-24T04:11:42.594Z,1015.45
2017-05-24T04:12:42.627Z,1015.44
2017-05-24T04:13:42.652Z,1015.42
2017-05-24T04:14:42.691Z,1015.45
2017-05-24T04:15:42.704Z,1015.45
2017-05-24T04:16:42.759Z,1015.44
2017-05-24T04:17:42.797Z,1015.46
2017-05-24T04:18:42.824Z,1015.49
2017-05-24T04:19:42.858Z,1015.49
2017-05-24T04:20:42.893Z,1015.48
2017-05-24T04:21:42.930Z,1015.48
2017-05-24T04:22:42.940Z,1015.47
2017-05-24T04:23:42.992Z,1015.43
2017-05-24T04:24:43.029Z,1015.39
2017-05-24T04:25:43.063Z,1015.51
2017-05-24T04:26:43.092Z,1015.45
2017-05-24T04:27:43.128Z,1015.41
2017-05-24T04:28:43.158Z,1015.46
2017-05-24T04:29:43.194Z,1015.4
2017-05-24T04:30:43.223Z,1015.45
2017-05-24T04:31:43.258Z,1015.41
2017-05-24T04:32:43.289Z,1015.38
2017-05-24T04:33:43.328Z,1015.48
2017-05-24T04:34:43.340Z,1015.45
2017-05-24T04:35:43.390Z,1015.46
2017-05-24T04:36:43.426Z,1015.43
2017-05-24T04:37:43.438Z,1015.49
2017-05-24T04:38:43.492Z,1015.47
2017-05-24T04:39:43.526Z,1015.54
2017-05-24T04:40:43.556Z,1015.47
2017-05-24T04:41:43.591Z,1015.52
2017-05-24T04:42:43.622Z,1015.5
2017-05-24T04:43:43.658Z,1015.55
2017-05-24T04:44:43.692Z,1015.6
2017-05-24T04:45:43.725Z,1015.55
2017-05-24T04:46:43.754Z,1015.6
2017-05-24T04:47:43.791Z,1015.56
2017-05-24T04:48:43.823Z,1015.55
2017-05-24T04:49:43.857Z,1015.53
2017-05-24T04:50:43.949Z,1015.52
2017-05-24T04:51:43.921Z,1015.56
2017-05-24T04:52:43.957Z,1015.59
2017-05-24T04:53:43.993Z,1015.56
2017-05-24T04:54:44.020Z,1015.56
2017-05-24T04:55:44.057Z,1015.58
2017-05-24T04:56:44.090Z,1015.54
2017-05-24T04:57:44.123Z,1015.49
2017-05-24T04:58:44.154Z,1015.57
2017-05-24T04:59:44.190Z,1015.56
2017-05-24T05:00:44.206Z,1015.57
2017-05-24T05:01:44.252Z,1015.55
2017-05-24T05:02:44.291Z,1015.54
2017-05-24T05:03:44.324Z,1015.56
2017-05-24T05:04:44.356Z,1015.62
2017-05-24T05:05:44.391Z,1015.58
2017-05-24T05:06:44.421Z,1015.61
2017-05-24T05:07:44.458Z,1015.59
2017-05-24T05:08:44.489Z,1015.65
2017-05-24T05:09:44.522Z,1015.62
2017-05-24T05:10:44.555Z,1015.63
2017-05-24T05:11:44.593Z,1015.55
2017-05-24T05:12:44.626Z,1015.6
2017-05-24T05:13:44.653Z,1015.59
2017-05-24T05:14:44.730Z,1015.63
2017-05-24T05:15:44.726Z,1015.62
2017-05-24T05:16:44.801Z,1015.6
2017-05-24T05:17:44.786Z,1015.61
2017-05-24T05:18:44.830Z,1015.69
2017-05-24T05:19:44.851Z,1015.67
2017-05-24T05:20:44.888Z,1015.66
2017-05-24T05:21:44.919Z,1015.66
2017-05-24T05:22:44.953Z,1015.71
2017-05-24T05:23:44.991Z,1015.74
2017-05-24T05:24:45.022Z,1015.71
2017-05-24T05:25:45.156Z,1015.74
2017-05-24T05:26:45.093Z,1015.7
2017-05-24T05:27:45.122Z,1015.7
2017-05-24T05:28:45.152Z,1015.68
2017-05-24T05:29:45.192Z,1015.67
2017-05-24T05:30:45.287Z,1015.73
2017-05-24T05:31:45.259Z,1015.77
2017-05-24T05:32:45.290Z,1015.73
2017-05-24T05:33:45.328Z,1015.75
2017-05-24T05:34:45.340Z,1015.73
2017-05-24T05:35:45.547Z,1015.72
2017-05-24T05:36:45.428Z,1015.71
2017-05-24T05:37:45.458Z,1015.75
2017-05-24T05:38:45.489Z,1015.78
2017-05-24T05:39:45.522Z,1015.73
2017-05-24T05:40:45.556Z,1015.76
2017-05-24T05:41:45.590Z,1015.77
2017-05-24T05:42:45.823Z,1015.71
2017-05-24T05:43:45.867Z,1015.81
2017-05-24T05:44:45.695Z,1015.79
2017-05-24T05:45:45.725Z,1015.89
2017-05-24T05:46:45.759Z,1015.84
2017-05-24T05:47:45.794Z,1015.83
2017-05-24T05:48:45.828Z,1015.82
2017-05-24T05:49:45.864Z,1015.85
2017-05-24T05:50:45.896Z,1015.87
2017-05-24T05:51:45.927Z,1015.88
2017-05-24T05:52:45.964Z,1015.84
2017-05-24T05:53:45.992Z,1015.84
2017-05-24T05:54:46.032Z,1015.85
2017-05-24T05:55:46.060Z,1015.89
2017-05-24T05:56:46.093Z,1015.92
2017-05-24T05:57:46.121Z,1015.9
2017-05-24T05:58:46.163Z,1015.82
2017-05-24T05:59:46.199Z,1015.9
2017-05-24T06:00:46.230Z,1015.91
2017-05-24T06:01:46.260Z,1015.92
2017-05-24T06:02:46.304Z,1015.93
2017-05-24T06:03:46.330Z,1015.91
2017-05-24T06:04:46.368Z,1015.89
2017-05-24T06:05:46.380Z,1015.96
2017-05-24T06:06:46.427Z,1015.93
2017-05-24T06:07:46.450Z,1015.89
2017-05-24T06:08:47.103Z,1015.94
2017-05-24T06:09:46.529Z,1015.96
2017-05-24T06:10:46.567Z,1015.97
2017-05-24T06:11:46.583Z,1015.99
2017-05-24T06:12:46.630Z,1016.01
2017-05-24T06:13:46.671Z,1015.98
2017-05-24T06:14:46.691Z,1016.03
2017-05-24T06:15:46.731Z,1016.07
2017-05-24T06:16:46.760Z,1016.04
2017-05-24T06:17:46.796Z,1016
2017-05-24T06:18:46.836Z,1016.07
2017-05-24T06:19:46.865Z,1016.08
2017-05-24T06:20:46.885Z,1016.11
2017-05-24T06:21:46.930Z,1016.15
2017-05-24T06:22:46.986Z,1016.11
2017-05-24T06:23:47.005Z,1016.12
2017-05-24T06:24:47.038Z,1016.18
2017-05-24T06:25:47.057Z,1016.19
2017-05-24T06:26:47.101Z,1016.24
2017-05-24T06:27:47.737Z,1016.26
2017-05-24T06:28:47.173Z,1016.24
2017-05-24T06:29:47.205Z,1016.25
2017-05-24T06:30:47.237Z,1016.24
2017-05-24T06:31:47.251Z,1016.33
2017-05-24T06:32:47.305Z,1016.28
2017-05-24T06:33:47.337Z,1016.28
2017-05-24T06:34:47.365Z,1016.29
2017-05-24T06:35:47.385Z,1016.28
2017-05-24T06:36:47.502Z,1016.29
2017-05-24T06:37:47.474Z,1016.27
2017-05-24T06:38:47.505Z,1016.22
2017-05-24T06:39:47.535Z,1016.33
2017-05-24T06:40:47.573Z,1016.31
2017-05-24T06:41:47.609Z,1016.27
2017-05-24T06:42:47.639Z,1016.34
2017-05-24T06:43:47.674Z,1016.33
2017-05-24T06:44:47.705Z,1016.26
2017-05-24T06:45:47.720Z,1016.26
2017-05-24T06:46:47.775Z,1016.29
2017-05-24T06:47:47.804Z,1016.29
2017-05-24T06:48:47.841Z,1016.34
2017-05-24T06:49:47.879Z,1016.3
2017-05-24T06:50:47.894Z,1016.42
2017-05-24T06:51:47.939Z,1016.46
2017-05-24T06:52:47.962Z,1016.44
2017-05-24T06:53:47.994Z,1016.44
2017-05-24T06:54:48.043Z,1016.52
2017-05-24T06:55:48.081Z,1016.49
2017-05-24T06:56:48.092Z,1016.47
2017-05-24T06:57:48.144Z,1016.53
2017-05-24T06:58:48.175Z,1016.46
2017-05-24T06:59:48.194Z,1016.46
2017-05-24T07:00:48.229Z,1016.48
2017-05-24T07:01:48.282Z,1016.49
2017-05-24T07:02:48.306Z,1016.44
2017-05-24T07:03:48.344Z,1016.45
2017-05-24T07:04:48.384Z,1016.5
2017-05-24T07:05:48.394Z,1016.45
2017-05-24T07:06:48.431Z,1016.44
2017-05-24T07:07:48.462Z,1016.44
2017-05-24T07:08:48.500Z,1016.45
2017-05-24T07:09:48.529Z,1016.45
2017-05-24T07:10:48.580Z,1016.46
2017-05-24T07:11:48.615Z,1016.47
2017-05-24T07:12:48.649Z,1016.46
2017-05-24T07:13:48.664Z,1016.51
2017-05-24T07:14:48.720Z,1016.51
2017-05-24T07:15:48.814Z,1016.49
2017-05-24T07:16:48.788Z,1016.48
2017-05-24T07:17:48.818Z,1016.52
2017-05-24T07:18:48.849Z,1016.5
2017-05-24T07:19:48.888Z,1016.53
2017-05-24T07:20:48.926Z,1016.49
2017-05-24T07:21:48.953Z,1016.56
2017-05-24T07:22:48.985Z,1016.56
2017-05-24T07:23:49.023Z,1016.53
2017-05-24T07:24:49.051Z,1016.48
2017-05-24T07:25:49.085Z,1016.5
2017-05-24T07:26:49.124Z,1016.51
2017-05-24T07:27:49.160Z,1016.49
2017-05-24T07:28:49.184Z,1016.52
2017-05-24T07:29:49.226Z,1016.46
2017-05-24T07:30:49.243Z,1016.51
2017-05-24T07:31:49.295Z,1016.53
2017-05-24T07:32:49.324Z,1016.54
2017-05-24T07:33:49.338Z,1016.51
2017-05-24T07:34:49.396Z,1016.48
2017-05-24T07:35:49.427Z,1016.48
2017-05-24T07:36:49.463Z,1016.47
2017-05-24T07:37:49.482Z,1016.42
2017-05-24T07:38:49.533Z,1016.39
2017-05-24T07:39:49.564Z,1016.4
2017-05-24T07:40:49.603Z,1016.41
2017-05-24T07:41:49.637Z,1016.44
2017-05-24T07:42:49.670Z,1016.44
2017-05-24T07:43:49.703Z,1016.4
2017-05-24T07:44:49.739Z,1016.45
2017-05-24T07:45:49.770Z,1016.53
2017-05-24T07:46:49.804Z,1016.49
2017-05-24T07:47:49.841Z,1016.48
2017-05-24T07:48:49.871Z,1016.51
2017-05-24T07:49:49.910Z,1016.51
2017-05-24T07:50:49.939Z,1016.54
2017-05-24T07:51:49.972Z,1016.58
2017-05-24T07:52:50.008Z,1016.57
2017-05-24T07:53:50.049Z,1016.6
2017-05-24T07:54:50.075Z,1016.6
2017-05-24T07:55:50.111Z,1016.61
2017-05-24T07:56:50.148Z,1016.56
2017-05-24T07:57:50.184Z,1016.61
2017-05-24T07:58:50.215Z,1016.65
2017-05-24T07:59:50.248Z,1016.61
2017-05-24T08:00:50.284Z,1016.64
2017-05-24T08:01:50.315Z,1016.65
2017-05-24T08:02:50.350Z,1016.58
2017-05-24T08:03:50.385Z,1016.65
2017-05-24T08:04:50.421Z,1016.68
2017-05-24T08:05:50.451Z,1016.61
2017-05-24T08:06:50.484Z,1016.7
2017-05-24T08:07:50.516Z,1016.68
2017-05-24T08:08:50.555Z,1016.72
2017-05-24T08:09:50.587Z,1016.76
2017-05-24T08:10:50.622Z,1016.74
2017-05-24T08:11:50.656Z,1016.75
2017-05-24T08:12:50.686Z,1016.79
2017-05-24T08:13:50.723Z,1016.82
2017-05-24T08:14:50.757Z,1016.91
2017-05-24T08:15:50.788Z,1016.84
2017-05-24T08:16:50.823Z,1016.82
2017-05-24T08:17:50.856Z,1016.85
2017-05-24T08:18:50.888Z,1016.84
2017-05-24T08:19:50.926Z,1016.86
2017-05-24T08:20:50.945Z,1016.87
2017-05-24T08:21:50.993Z,1016.84
2017-05-24T08:22:51.019Z,1016.84
2017-05-24T08:23:51.041Z,1016.84
2017-05-24T08:24:51.093Z,1016.76
2017-05-24T08:25:51.114Z,1016.82
2017-05-24T08:26:51.163Z,1016.83
2017-05-24T08:27:51.197Z,1016.85
2017-05-24T08:28:51.231Z,1016.84
2017-05-24T08:29:51.268Z,1016.83
2017-05-24T08:30:51.298Z,1016.91
2017-05-24T08:31:51.337Z,1016.87
2017-05-24T08:32:51.372Z,1016.86
2017-05-24T08:33:51.403Z,1016.87
2017-05-24T08:34:51.436Z,1016.87
2017-05-24T08:35:51.469Z,1016.91
2017-05-24T08:36:51.505Z,1016.86
2017-05-24T08:37:51.541Z,1016.88
2017-05-24T08:38:51.554Z,1016.92
2017-05-24T08:39:51.603Z,1016.94
2017-05-24T08:40:51.644Z,1016.92
2017-05-24T08:41:51.676Z,1016.96
2017-05-24T08:42:51.709Z,1016.92
2017-05-24T08:43:51.749Z,1016.98
2017-05-24T08:44:51.760Z,1016.97
2017-05-24T08:45:51.814Z,1017.07
2017-05-24T08:46:51.855Z,1017.04
2017-05-24T08:47:51.887Z,1017.08
2017-05-24T08:48:51.921Z,1017.02
2017-05-24T08:49:51.957Z,1017.01
2017-05-24T08:50:51.991Z,1017.05
2017-05-24T08:51:52.029Z,1017.05
2017-05-24T08:52:52.061Z,1017.04
2017-05-24T08:53:52.094Z,1017.06
2017-05-24T08:54:52.135Z,1017.05
2017-05-24T08:55:52.158Z,1017.04
2017-05-24T08:56:52.203Z,1017.03
2017-05-24T08:57:52.243Z,1017.02
2017-05-24T08:58:52.280Z,1017.05
2017-05-24T08:59:52.313Z,1017.04
2017-05-24T09:00:52.347Z,1017.06
2017-05-24T09:01:52.377Z,1017.04
2017-05-24T09:02:52.415Z,1017.02
2017-05-24T09:03:52.454Z,1017.06
2017-05-24T09:04:52.472Z,1017.06
2017-05-24T09:05:52.524Z,1017.12
2017-05-24T09:06:52.565Z,1017.09
2017-05-24T09:07:52.593Z,1017.03
2017-05-24T09:08:52.630Z,1017.02
2017-05-24T09:09:52.668Z,1017.06
2017-05-24T09:10:52.698Z,1017.07
2017-05-24T09:11:52.734Z,1017.1
2017-05-24T09:12:52.768Z,1017.13
2017-05-24T09:13:52.806Z,1017.11
2017-05-24T09:14:52.841Z,1017.06
2017-05-24T09:15:52.874Z,1017.09
2017-05-24T09:16:52.914Z,1017.13
2017-05-24T09:17:52.944Z,1017.03
2017-05-24T09:18:52.961Z,1017.05
2017-05-24T09:19:53.018Z,1017.04
2017-05-24T09:20:53.031Z,1017.07
2017-05-24T09:21:53.082Z,1017.06
2017-05-24T09:22:53.117Z,1016.99
2017-05-24T09:23:53.159Z,1016.99
2017-05-24T09:24:53.186Z,1017.02
2017-05-24T09:25:53.222Z,1016.95
2017-05-24T09:26:53.237Z,1017.03
2017-05-24T09:27:53.292Z,1016.97
2017-05-24T09:28:53.331Z,1017.01
2017-05-24T09:29:53.366Z,1017
2017-05-24T09:30:53.400Z,1017.07
2017-05-24T09:31:53.426Z,1017.06
2017-05-24T09:32:53.469Z,1017.1
2017-05-24T09:33:53.504Z,1017.11
2017-05-24T09:34:53.542Z,1017.1
2017-05-24T09:35:53.572Z,1017.13
2017-05-24T09:36:53.607Z,1017.08
2017-05-24T09:37:53.643Z,1017.14
2017-05-24T09:38:53.683Z,1017.15
2017-05-24T09:39:53.718Z,1017.14
2017-05-24T09:40:53.746Z,1017.12
2017-05-24T09:41:53.768Z,1017.09
2017-05-24T09:42:53.818Z,1017.07
2017-05-24T09:43:53.853Z,1017.09
2017-05-24T09:44:53.868Z,1017.07
2017-05-24T09:45:53.924Z,1017.07
2017-05-24T09:46:53.959Z,1017.04
2017-05-24T09:47:53.989Z,1017.07
2017-05-24T09:48:54.032Z,1017.07
2017-05-24T09:49:54.061Z,1017.1
2017-05-24T09:50:54.085Z,1017.09
2017-05-24T09:51:54.133Z,1017.15
2017-05-24T09:52:54.170Z,1017.15
2017-05-24T09:53:54.203Z,1017.09
2017-05-24T09:54:54.242Z,1017.17
2017-05-24T09:55:54.275Z,1017.19
2017-05-24T09:56:54.312Z,1017.13
2017-05-24T09:57:54.344Z,1017.19
2017-05-24T09:58:54.383Z,1017.21
2017-05-24T09:59:54.417Z,1017.13
2017-05-24T10:00:54.452Z,1017.08
2017-05-24T10:01:54.482Z,1017.18
2017-05-24T10:02:54.522Z,1017.16
2017-05-24T10:03:54.559Z,1017.15
2017-05-24T10:04:54.587Z,1017.17
2017-05-24T10:05:54.622Z,1017.15
2017-05-24T10:06:54.660Z,1017.15
2017-05-24T10:07:54.680Z,1017.14
2017-05-24T10:08:54.731Z,1017.15
2017-05-24T10:09:54.769Z,1017.2
2017-05-24T10:10:54.805Z,1017.16
2017-05-24T10:11:54.824Z,1017.14
2017-05-24T10:12:54.874Z,1017.16
2017-05-24T10:13:54.912Z,1017.16
2017-05-24T10:14:54.943Z,1017.19
2017-05-24T10:15:55.037Z,1017.11
2017-05-24T10:16:55.016Z,1017.13
2017-05-24T10:17:55.055Z,1017.15
2017-05-24T10:18:55.089Z,1017.17
2017-05-24T10:19:55.124Z,1017.17
2017-05-24T10:20:55.143Z,1017.18
2017-05-24T10:21:55.171Z,1017.2
2017-05-24T10:22:55.226Z,1017.14
2017-05-24T10:23:55.268Z,1017.14
2017-05-24T10:24:55.319Z,1017.13
2017-05-24T10:25:55.334Z,1017.08
2017-05-24T10:26:55.378Z,1017.17
2017-05-24T10:27:55.410Z,1017.09
2017-05-24T10:28:55.443Z,1017.1
2017-05-24T10:29:55.481Z,1017.12
2017-05-24T10:30:55.512Z,1017.11
2017-05-24T10:31:55.557Z,1017.1
2017-05-24T10:32:55.571Z,1017.01
2017-05-24T10:33:55.626Z,1017.02
2017-05-24T10:34:55.663Z,1017.04
2017-05-24T10:35:55.697Z,1017.02
2017-05-24T10:36:55.731Z,1017.05
2017-05-24T10:37:55.777Z,1017.04
2017-05-24T10:38:55.809Z,1016.97
2017-05-24T10:39:55.842Z,1016.92
2017-05-24T10:40:55.882Z,1016.98
2017-05-24T10:41:55.917Z,1016.99
2017-05-24T10:42:55.957Z,1017.02
2017-05-24T10:43:55.985Z,1017.12
2017-05-24T10:44:56.026Z,1017.24
2017-05-24T10:45:56.062Z,1017.6
2017-05-24T10:46:56.077Z,1017.49
2017-05-24T10:47:56.167Z,1017.23
2017-05-24T10:48:56.175Z,1017.2
2017-05-24T10:49:56.205Z,1017.14
2017-05-24T10:50:56.243Z,1017.14
2017-05-24T10:51:56.283Z,1017.1
2017-05-24T10:52:56.319Z,1017.07
2017-05-24T10:53:56.334Z,1017.06
2017-05-24T10:54:56.388Z,1017.03
2017-05-24T10:55:56.429Z,1016.97
2017-05-24T10:56:56.470Z,1016.95
2017-05-24T10:57:56.503Z,1016.92
2017-05-24T10:58:56.541Z,1016.99
2017-05-24T10:59:56.582Z,1016.98
2017-05-24T11:00:56.619Z,1016.97
2017-05-24T11:01:56.658Z,1016.9
2017-05-24T11:02:56.693Z,1016.93
2017-05-24T11:03:56.729Z,1016.91
2017-05-24T11:04:56.768Z,1016.93
2017-05-24T11:05:56.806Z,1016.99
2017-05-24T11:06:56.840Z,1017.02
2017-05-24T11:07:56.882Z,1016.98
2017-05-24T11:08:56.919Z,1017.01
2017-05-24T11:09:56.953Z,1017
2017-05-24T11:10:56.984Z,1016.93
2017-05-24T11:11:57.028Z,1017.01
2017-05-24T11:12:57.075Z,1017.08
2017-05-24T11:13:57.105Z,1017.08
2017-05-24T11:14:57.144Z,1016.99
2017-05-24T11:15:57.182Z,1016.94
2017-05-24T11:16:57.219Z,1016.91
2017-05-24T11:17:57.244Z,1016.9
2017-05-24T11:18:57.291Z,1016.86
2017-05-24T11:19:57.332Z,1016.86
2017-05-24T11:20:57.372Z,1016.88
2017-05-24T11:21:57.408Z,1016.92
2017-05-24T11:22:57.423Z,1016.88
2017-05-24T11:23:57.465Z,1016.91
2017-05-24T11:24:57.520Z,1016.94
2017-05-24T11:25:57.555Z,1016.96
2017-05-24T11:26:57.598Z,1016.97
2017-05-24T11:27:57.626Z,1016.94
2017-05-24T11:28:57.668Z,1016.97
2017-05-24T11:29:57.704Z,1016.93
2017-05-24T11:30:57.739Z,1016.89
2017-05-24T11:31:57.781Z,1016.97
2017-05-24T11:32:57.817Z,1017.03
2017-05-24T11:33:57.832Z,1017.03
2017-05-24T11:34:57.867Z,1017.07
2017-05-24T11:35:57.925Z,1017.08
2017-05-24T11:36:57.961Z,1016.98
2017-05-24T11:37:58.002Z,1017.07
2017-05-24T11:38:58.040Z,1017
2017-05-24T11:39:58.081Z,1017.01
2017-05-24T11:40:58.111Z,1016.93
2017-05-24T11:41:58.152Z,1017
2017-05-24T11:42:58.189Z,1017
2017-05-24T11:43:58.229Z,1016.91
2017-05-24T11:44:58.269Z,1016.96
2017-05-24T11:45:58.307Z,1016.94
2017-05-24T11:46:58.343Z,1016.86
2017-05-24T11:47:58.378Z,1016.84
2017-05-24T11:48:58.419Z,1016.92
2017-05-24T11:49:58.454Z,1016.8
2017-05-24T11:50:58.490Z,1016.76
2017-05-24T11:51:58.529Z,1016.74
2017-05-24T11:52:58.572Z,1016.86
2017-05-24T11:53:58.607Z,1016.78
2017-05-24T11:54:58.645Z,1016.73
2017-05-24T11:55:58.685Z,1016.66
2017-05-24T11:56:58.725Z,1016.63
2017-05-24T11:57:58.759Z,1016.67
2017-05-24T11:58:58.784Z,1016.77
2017-05-24T11:59:58.824Z,1016.69
2017-05-24T12:00:58.875Z,1016.63
2017-05-24T12:01:58.914Z,1016.71
2017-05-24T12:02:58.930Z,1016.69
2017-05-24T12:03:58.986Z,1016.68
2017-05-24T12:04:59.026Z,1016.65
2017-05-24T12:05:59.068Z,1016.63
2017-05-24T12:06:59.102Z,1016.6
2017-05-24T12:07:59.138Z,1016.57
2017-05-24T12:08:59.181Z,1016.53